Time;durP1;ratioP1;P1;durP2;ratioP2;P2;SDS_P1;SDS_P2;PMS_P1;PMS_P2;Temp;Humidity;BMP_temperature;BMP_pressure;BME280_temperature;BME280_humidity;BME280_pressure;Samples;Min_cycle;Max_cycle;Signal;HPM_P1;HPM_P2
2022/08/22 00:00:26;;;;;;;;;;;23.70;85.10;;;;;;5116297;28;20350;-55
2022/08/22 00:03:10;;;;;;;;;;;23.60;85.00;;;;;;5116335;28;19923;-54
2022/08/22 00:05:40;;;;;;;;;;;23.70;85.00;;;;;;5116478;28;19912;-52
2022/08/22 00:08:08;;;;;;;;;;;23.70;85.00;;;;;;5116358;28;20010;-56
2022/08/22 00:10:37;;;;;;;;;;;23.60;85.00;;;;;;5116265;28;19995;-52
2022/08/22 00:13:06;;;;;;;;;;;23.70;85.00;;;;;;5116272;28;19946;-55
2022/08/22 00:15:41;;;;;;;;;;;23.60;85.00;;;;;;5116073;28;19908;-54
2022/08/22 00:18:09;;;;;;;;;;;23.60;85.00;;;;;;5116109;28;19962;-55
2022/08/22 00:20:40;;;;;;;;;;;23.60;84.90;;;;;;5115947;28;19916;-57
2022/08/22 00:23:05;;;;;;;;;;;23.70;85.00;;;;;;5116096;28;19998;-55
2022/08/22 00:25:35;;;;;;;;;;;23.60;85.00;;;;;;5115652;28;20393;-55
2022/08/22 00:28:01;;;;;;;;;;;23.60;85.00;;;;;;5097782;28;19918;-54
2022/08/22 00:30:27;;;;;;;;;;;23.60;85.00;;;;;;5115761;28;19911;-54
2022/08/22 00:32:55;;;;;;;;;;;23.60;84.90;;;;;;5116192;28;20033;-56
2022/08/22 00:35:27;;;;;;;;;;;23.60;84.90;;;;;;5115492;28;19965;-54
2022/08/22 00:38:14;;;;;;;;;;;23.70;85.00;;;;;;5115213;28;19908;-50
2022/08/22 00:41:08;;;;;;;;;;;23.70;85.00;;;;;;5115300;28;19915;-56
2022/08/22 00:43:53;;;;;;;;;;;23.60;84.90;;;;;;5025150;28;20419;-56
2022/08/22 00:46:37;;;;;;;;;;;23.60;84.90;;;;;;5097522;28;19907;-53
2022/08/22 00:49:29;;;;;;;;;;;23.60;84.90;;;;;;5115293;28;19909;-53
2022/08/22 00:52:21;;;;;;;;;;;23.70;84.80;;;;;;5115239;28;20362;-55
2022/08/22 00:54:46;;;;;;;;;;;23.60;84.80;;;;;;5115558;28;20287;-56
2022/08/22 00:57:27;;;;;;;;;;;23.60;84.80;;;;;;5115403;28;19915;-55
2022/08/22 01:00:00;;;;;;;;;;;23.70;84.80;;;;;;5097100;28;19920;-51
2022/08/22 01:02:26;;;;;;;;;;;23.60;84.80;;;;;;5115293;28;19920;-54
2022/08/22 01:05:09;;;;;;;;;;;23.70;84.90;;;;;;5115443;28;19908;-54
2022/08/22 01:08:04;;;;;;;;;;;23.60;84.80;;;;;;5115011;28;19908;-54
2022/08/22 01:10:49;;;;;;;;;;;23.60;84.80;;;;;;5092462;28;19915;-57
2022/08/22 01:13:32;;;;;;;;;;;23.60;85.30;;;;;;5096893;28;19995;-55
2022/08/22 01:16:08;;;;;;;;;;;23.60;84.80;;;;;;5114885;28;19988;-56
2022/08/22 01:18:43;;;;;;;;;;;23.60;84.80;;;;;;5115177;28;19907;-56
2022/08/22 01:21:27;;;;;;;;;;;23.60;84.80;;;;;;5096807;28;20350;-57
2022/08/22 01:23:53;;;;;;;;;;;23.60;84.70;;;;;;5096718;28;19908;-54
2022/08/22 01:26:36;;;;;;;;;;;23.60;84.70;;;;;;5114655;28;19914;-52
2022/08/22 01:29:23;;;;;;;;;;;23.60;84.80;;;;;;5114912;28;19908;-58
2022/08/22 01:32:06;;;;;;;;;;;23.60;84.70;;;;;;5114979;28;20297;-56
2022/08/22 01:34:52;;;;;;;;;;;23.60;84.80;;;;;;5114908;28;19908;-53
2022/08/22 01:37:20;;;;;;;;;;;23.60;84.70;;;;;;5114665;28;20363;-56
2022/08/22 01:40:04;;;;;;;;;;;23.60;84.70;;;;;;5114340;28;20397;-57
2022/08/22 01:42:42;;;;;;;;;;;23.60;84.70;;;;;;5114686;28;19915;-56
2022/08/22 01:45:26;;;;;;;;;;;23.60;84.70;;;;;;5114797;28;19911;-56
2022/08/22 01:48:11;;;;;;;;;;;23.60;84.70;;;;;;5114116;28;20350;-56
2022/08/22 01:50:57;;;;;;;;;;;23.60;84.70;;;;;;5113801;28;19938;-55
2022/08/22 01:53:24;;;;;;;;;;;23.60;84.60;;;;;;5096443;28;19915;-54
2022/08/22 01:56:00;;;;;;;;;;;23.60;84.70;;;;;;5114417;28;19908;-56
2022/08/22 01:58:26;;;;;;;;;;;23.60;84.70;;;;;;5114611;28;20065;-52
2022/08/22 02:00:57;;;;;;;;;;;23.60;84.70;;;;;;5114195;28;20309;-57
2022/08/22 02:03:30;;;;;;;;;;;23.60;85.20;;;;;;5114308;28;20363;-54
2022/08/22 02:06:16;;;;;;;;;;;23.60;84.70;;;;;;5114453;28;20026;-53
2022/08/22 02:09:00;;;;;;;;;;;23.60;84.60;;;;;;5114193;28;19947;-57
2022/08/22 02:11:36;;;;;;;;;;;23.60;84.70;;;;;;5114076;28;19908;-54
2022/08/22 02:14:20;;;;;;;;;;;23.60;84.60;;;;;;5114437;28;19907;-56
2022/08/22 02:16:49;;;;;;;;;;;23.60;84.60;;;;;;5114066;28;19929;-56
2022/08/22 02:19:14;;;;;;;;;;;23.60;84.60;;;;;;5114303;28;19961;-56
2022/08/22 02:21:58;;;;;;;;;;;23.60;84.70;;;;;;5114100;28;20332;-55
2022/08/22 02:24:33;;;;;;;;;;;23.50;84.60;;;;;;5114074;28;19908;-56
2022/08/22 02:27:25;;;;;;;;;;;23.60;84.70;;;;;;5114332;28;20267;-54
2022/08/22 02:30:00;;;;;;;;;;;23.60;84.60;;;;;;5075108;28;20396;-55
2022/08/22 02:32:38;;;;;;;;;;;23.60;84.60;;;;;;5096034;28;19908;-55
2022/08/22 02:35:07;;;;;;;;;;;23.60;84.60;;;;;;5114247;28;19961;-52
2022/08/22 02:37:48;;;;;;;;;;;23.60;84.60;;;;;;5095959;28;19915;-53
2022/08/22 02:40:33;;;;;;;;;;;23.60;85.10;;;;;;5095861;28;20324;-55
2022/08/22 02:43:22;;;;;;;;;;;23.60;84.60;;;;;;5113646;28;19911;-55
2022/08/22 02:45:56;;;;;;;;;;;23.60;84.60;;;;;;5100035;28;19986;-54
2022/08/22 02:48:31;;;;;;;;;;;23.60;84.60;;;;;;5114127;28;19908;-55
2022/08/22 02:51:00;;;;;;;;;;;23.60;84.60;;;;;;5095987;28;19911;-57
2022/08/22 02:53:31;;;;;;;;;;;23.60;84.60;;;;;;5114096;28;19908;-53
2022/08/22 02:56:15;;;;;;;;;;;23.50;84.50;;;;;;5114098;28;20014;-54
2022/08/22 02:58:55;;;;;;;;;;;23.50;84.50;;;;;;5113626;28;20345;-55
2022/08/22 03:01:26;;;;;;;;;;;23.60;84.60;;;;;;5116525;28;19943;-57
2022/08/22 03:04:12;;;;;;;;;;;23.60;84.60;;;;;;5099291;28;19955;-56
2022/08/22 03:06:41;;;;;;;;;;;23.60;84.60;;;;;;5117833;28;19946;-54
2022/08/22 03:09:06;;;;;;;;;;;23.60;84.60;;;;;;5117262;28;20382;-53
2022/08/22 03:11:36;;;;;;;;;;;23.50;84.50;;;;;;5117188;28;19912;-56
2022/08/22 03:14:10;;;;;;;;;;;23.50;84.60;;;;;;5117296;28;20421;-56
2022/08/22 03:16:47;;;;;;;;;;;23.50;85.10;;;;;;5117025;28;19908;-55
2022/08/22 03:19:13;;;;;;;;;;;23.50;84.60;;;;;;5116912;28;19915;-55
2022/08/22 03:21:58;;;;;;;;;;;23.50;84.60;;;;;;5117230;28;19914;-55
2022/08/22 03:24:32;;;;;;;;;;;23.50;84.50;;;;;;5117288;28;19997;-54
2022/08/22 03:27:04;;;;;;;;;;;23.50;84.50;;;;;;5117057;28;19907;-56
2022/08/22 03:29:39;;;;;;;;;;;23.50;84.50;;;;;;5117046;28;19908;-55
2022/08/22 03:32:06;;;;;;;;;;;23.60;84.60;;;;;;5117010;28;19993;-53
2022/08/22 03:34:32;;;;;;;;;;;23.50;84.50;;;;;;5116851;28;19912;-51
2022/08/22 03:37:19;;;;;;;;;;;23.50;84.50;;;;;;5116850;28;19908;-55
2022/08/22 03:39:44;;;;;;;;;;;23.50;84.50;;;;;;5098524;28;19923;-55
2022/08/22 03:42:16;;;;;;;;;;;23.50;84.50;;;;;;5116622;28;19908;-53
2022/08/22 03:45:08;;;;;;;;;;;23.50;84.50;;;;;;5098531;28;19915;-55
2022/08/22 03:47:41;;;;;;;;;;;23.50;84.60;;;;;;5077458;28;19908;-56
2022/08/22 03:50:25;;;;;;;;;;;23.50;84.50;;;;;;5117059;28;19918;-56
2022/08/22 03:53:06;;;;;;;;;;;23.50;84.50;;;;;;5116341;28;19915;-56
2022/08/22 03:56:09;;;;;;;;;;;23.50;84.50;;;;;;5116965;28;19908;-56
2022/08/22 03:58:37;;;;;;;;;;;23.50;84.50;;;;;;5116646;28;19939;-55
2022/08/22 04:01:06;;;;;;;;;;;23.50;84.60;;;;;;5116461;28;19930;-56
2022/08/22 04:03:43;;;;;;;;;;;23.50;84.50;;;;;;5116366;28;20236;-50
2022/08/22 04:06:28;;;;;;;;;;;23.50;84.50;;;;;;5116372;28;19915;-54
2022/08/22 04:09:12;;;;;;;;;;;23.50;84.60;;;;;;5116051;28;19908;-56
2022/08/22 04:11:38;;;;;;;;;;;23.50;84.50;;;;;;5115002;28;19915;-54
2022/08/22 04:14:03;;;;;;;;;;;23.50;84.50;;;;;;5116099;28;19908;-53
2022/08/22 04:16:40;;;;;;;;;;;23.50;84.50;;;;;;5116462;28;20354;-56
2022/08/22 04:19:08;;;;;;;;;;;23.50;84.60;;;;;;5116356;28;19922;-55
2022/08/22 04:21:48;;;;;;;;;;;23.50;84.50;;;;;;5115744;28;19918;-57
2022/08/22 04:24:28;;;;;;;;;;;23.50;84.50;;;;;;5115707;28;19908;-57
2022/08/22 04:27:00;;;;;;;;;;;23.50;84.50;;;;;;5115873;28;19926;-53
2022/08/22 04:29:30;;;;;;;;;;;23.50;84.50;;;;;;5115658;28;19930;-53
2022/08/22 04:32:01;;;;;;;;;;;23.50;84.50;;;;;;5115809;28;20262;-55
2022/08/22 04:34:27;;;;;;;;;;;23.50;84.50;;;;;;5115494;28;19934;-55
2022/08/22 04:36:59;;;;;;;;;;;23.50;84.50;;;;;;5115519;28;20351;-52
2022/08/22 04:39:24;;;;;;;;;;;23.50;84.60;;;;;;5115671;28;20370;-53
2022/08/22 04:42:13;;;;;;;;;;;23.50;84.50;;;;;;5115545;28;19908;-52
2022/08/22 04:44:41;;;;;;;;;;;23.50;84.60;;;;;;5115433;28;19933;-57
2022/08/22 04:47:12;;;;;;;;;;;23.50;84.50;;;;;;5097269;28;19912;-55
2022/08/22 04:49:42;;;;;;;;;;;23.50;84.50;;;;;;5115552;28;19946;-55
2022/08/22 04:52:07;;;;;;;;;;;23.50;84.50;;;;;;5115232;28;19911;-57
2022/08/22 04:54:51;;;;;;;;;;;23.50;84.50;;;;;;5115682;28;19977;-55
2022/08/22 04:57:23;;;;;;;;;;;23.50;84.50;;;;;;5115241;28;20263;-55
2022/08/22 04:59:49;;;;;;;;;;;23.50;84.50;;;;;;5115097;28;20278;-57
2022/08/22 05:02:22;;;;;;;;;;;23.50;84.40;;;;;;5115138;28;20278;-55
2022/08/22 05:04:50;;;;;;;;;;;23.50;84.50;;;;;;5096782;28;19935;-56
2022/08/22 05:07:29;;;;;;;;;;;23.50;84.50;;;;;;5114754;28;20381;-52
2022/08/22 05:09:59;;;;;;;;;;;23.50;84.50;;;;;;5115190;28;19907;-55
2022/08/22 05:12:29;;;;;;;;;;;23.50;84.50;;;;;;5096732;28;19915;-56
2022/08/22 05:14:57;;;;;;;;;;;23.50;84.50;;;;;;5115025;28;19908;-57
2022/08/22 05:17:24;;;;;;;;;;;23.50;84.60;;;;;;5114809;28;20346;-55
2022/08/22 05:19:52;;;;;;;;;;;23.50;84.50;;;;;;5114502;28;19923;-55
2022/08/22 05:22:22;;;;;;;;;;;23.50;84.50;;;;;;5114467;28;20410;-54
2022/08/22 05:24:50;;;;;;;;;;;23.50;84.50;;;;;;5114138;28;20003;-56
2022/08/22 05:27:23;;;;;;;;;;;23.50;84.50;;;;;;5114536;28;19915;-56
2022/08/22 05:29:52;;;;;;;;;;;23.50;84.40;;;;;;5114239;28;20402;-55
2022/08/22 05:32:20;;;;;;;;;;;23.50;84.40;;;;;;5114528;28;19915;-57
2022/08/22 05:34:47;;;;;;;;;;;23.50;84.40;;;;;;5114127;28;19913;-55
2022/08/22 05:37:38;;;;;;;;;;;23.50;84.30;;;;;;5114524;28;19908;-55
2022/08/22 05:40:04;;;;;;;;;;;23.50;84.40;;;;;;5109520;28;19985;-55
2022/08/22 05:42:33;;;;;;;;;;;23.50;84.40;;;;;;5113961;28;20370;-55
2022/08/22 05:45:03;;;;;;;;;;;23.50;84.40;;;;;;5114240;28;19908;-54
2022/08/22 05:47:48;;;;;;;;;;;23.50;84.30;;;;;;5114324;28;19908;-55
2022/08/22 05:50:15;;;;;;;;;;;23.50;84.40;;;;;;5096062;28;19908;-54
2022/08/22 05:52:41;;;;;;;;;;;23.50;84.40;;;;;;5114341;28;19911;-52
2022/08/22 05:55:09;;;;;;;;;;;23.50;84.30;;;;;;5114641;28;19912;-57
2022/08/22 05:57:37;;;;;;;;;;;23.50;84.30;;;;;;5114170;28;19908;-54
2022/08/22 06:00:06;;;;;;;;;;;23.50;84.30;;;;;;5114043;28;19919;-55
2022/08/22 06:02:38;;;;;;;;;;;23.50;84.30;;;;;;5113770;28;19968;-55
2022/08/22 06:05:06;;;;;;;;;;;23.50;84.30;;;;;;5113866;28;19951;-55
2022/08/22 06:07:43;;;;;;;;;;;23.50;84.30;;;;;;5114187;28;19908;-55
2022/08/22 06:10:21;;;;;;;;;;;23.50;84.20;;;;;;5113619;28;20072;-55
2022/08/22 06:12:52;;;;;;;;;;;23.50;84.20;;;;;;5113972;28;19907;-55
2022/08/22 06:15:21;;;;;;;;;;;23.50;84.20;;;;;;5095541;28;19951;-51
2022/08/22 06:17:52;;;;;;;;;;;23.50;84.20;;;;;;5113757;28;19919;-54
2022/08/22 06:20:24;;;;;;;;;;;23.60;84.30;;;;;;5113607;28;20274;-55
2022/08/22 06:22:54;;;;;;;;;;;23.60;84.20;;;;;;5113595;28;19908;-51
2022/08/22 06:25:31;;;;;;;;;;;23.60;84.20;;;;;;5113846;28;20373;-55
2022/08/22 06:27:58;;;;;;;;;;;23.50;84.20;;;;;;5113978;28;20289;-52
2022/08/22 06:30:25;;;;;;;;;;;23.50;84.20;;;;;;5113840;28;20002;-53
2022/08/22 06:32:52;;;;;;;;;;;23.60;84.20;;;;;;5113393;28;19908;-56
2022/08/22 06:35:22;;;;;;;;;;;23.60;84.20;;;;;;5114562;28;19951;-54
2022/08/22 06:37:49;;;;;;;;;;;23.50;84.20;;;;;;5117280;28;19961;-52
2022/08/22 06:40:15;;;;;;;;;;;23.60;84.20;;;;;;5117467;28;19916;-55
2022/08/22 06:42:43;;;;;;;;;;;23.60;84.20;;;;;;5117221;28;19915;-54
2022/08/22 06:45:17;;;;;;;;;;;23.60;84.20;;;;;;5117316;28;19919;-53
2022/08/22 06:48:03;;;;;;;;;;;23.60;84.20;;;;;;5117764;28;19908;-53
2022/08/22 06:50:33;;;;;;;;;;;23.60;84.20;;;;;;5099281;28;19915;-52
2022/08/22 06:53:04;;;;;;;;;;;23.60;84.20;;;;;;5117014;28;19915;-55
2022/08/22 06:55:30;;;;;;;;;;;23.60;84.20;;;;;;5116765;28;20400;-54
2022/08/22 06:58:03;;;;;;;;;;;23.50;84.20;;;;;;5117149;28;19908;-52
2022/08/22 07:00:30;;;;;;;;;;;23.60;84.20;;;;;;5117156;28;19924;-56
2022/08/22 07:02:57;;;;;;;;;;;23.60;84.20;;;;;;5116971;28;19926;-56
2022/08/22 07:05:27;;;;;;;;;;;23.60;84.10;;;;;;5117593;28;19912;-55
2022/08/22 07:07:53;;;;;;;;;;;23.60;84.20;;;;;;5116886;28;20377;-55
2022/08/22 07:10:20;;;;;;;;;;;23.60;84.10;;;;;;5116981;28;19915;-56
2022/08/22 07:12:47;;;;;;;;;;;23.60;84.10;;;;;;5117418;28;19907;-56
2022/08/22 07:15:35;;;;;;;;;;;23.60;84.10;;;;;;5117370;28;19950;-54
2022/08/22 07:18:03;;;;;;;;;;;23.50;84.10;;;;;;5117021;28;19964;-54
2022/08/22 07:20:33;;;;;;;;;;;23.60;84.20;;;;;;5116846;28;20370;-54
2022/08/22 07:23:07;;;;;;;;;;;23.60;84.10;;;;;;5116729;28;19972;-55
2022/08/22 07:25:38;;;;;;;;;;;23.60;84.20;;;;;;5098517;28;19912;-57
2022/08/22 07:28:13;;;;;;;;;;;23.60;84.10;;;;;;5116856;28;19908;-54
2022/08/22 07:30:38;;;;;;;;;;;23.60;84.20;;;;;;5098564;28;19943;-55
2022/08/22 07:33:08;;;;;;;;;;;23.60;84.10;;;;;;5116551;28;19934;-56
2022/08/22 07:35:40;;;;;;;;;;;23.50;84.10;;;;;;5116722;28;19934;-51
2022/08/22 07:38:21;;;;;;;;;;;23.60;84.20;;;;;;5116460;28;19915;-55
2022/08/22 07:40:47;;;;;;;;;;;23.60;84.20;;;;;;5116314;28;19927;-56
2022/08/22 07:43:30;;;;;;;;;;;23.60;84.20;;;;;;5116473;28;19907;-56
2022/08/22 07:46:01;;;;;;;;;;;23.50;84.20;;;;;;5116089;28;20313;-57
2022/08/22 07:48:26;;;;;;;;;;;23.60;84.20;;;;;;5116027;28;19961;-53
2022/08/22 07:50:52;;;;;;;;;;;23.60;84.20;;;;;;5116174;28;19908;-55
2022/08/22 07:53:24;;;;;;;;;;;23.60;84.10;;;;;;5116168;28;20006;-54
2022/08/22 07:55:52;;;;;;;;;;;23.60;84.20;;;;;;5115941;28;19931;-53
2022/08/22 07:58:20;;;;;;;;;;;23.60;84.20;;;;;;5116148;28;19969;-55
2022/08/22 08:00:47;;;;;;;;;;;23.60;84.20;;;;;;5116009;28;19916;-55
2022/08/22 08:03:13;;;;;;;;;;;23.60;84.10;;;;;;5115822;28;19920;-55
2022/08/22 08:05:41;;;;;;;;;;;23.60;84.10;;;;;;5116097;28;19908;-55
2022/08/22 08:08:11;;;;;;;;;;;23.60;84.20;;;;;;5115813;28;20353;-52
2022/08/22 08:10:38;;;;;;;;;;;23.60;84.10;;;;;;5115688;28;19908;-54
2022/08/22 08:13:06;;;;;;;;;;;23.60;84.10;;;;;;5115680;28;19908;-52
2022/08/22 08:15:33;;;;;;;;;;;23.60;84.10;;;;;;5116143;28;19908;-56
2022/08/22 08:18:01;;;;;;;;;;;23.60;84.10;;;;;;5115955;28;19914;-57
2022/08/22 08:20:28;;;;;;;;;;;23.60;84.00;;;;;;5097355;28;19916;-53
2022/08/22 08:22:54;;;;;;;;;;;23.60;84.00;;;;;;5115271;28;19908;-56
2022/08/22 08:25:22;;;;;;;;;;;23.60;84.00;;;;;;5115560;28;19947;-56
2022/08/22 08:30:35;;;;;;;;;;;23.60;84.00;;;;;;5115863;28;19961;-55
2022/08/22 08:33:01;;;;;;;;;;;23.60;84.00;;;;;;5115595;28;19964;-56
2022/08/22 08:35:28;;;;;;;;;;;23.70;84.10;;;;;;5115200;28;19912;-54
2022/08/22 08:38:15;;;;;;;;;;;23.70;84.10;;;;;;5115529;28;19908;-53
2022/08/22 08:40:40;;;;;;;;;;;23.60;84.00;;;;;;5115111;28;19916;-52
2022/08/22 08:43:28;;;;;;;;;;;23.70;84.00;;;;;;5115156;28;19915;-52
2022/08/22 08:46:00;;;;;;;;;;;23.60;84.00;;;;;;5115239;28;20346;-56
2022/08/22 08:48:26;;;;;;;;;;;23.60;84.00;;;;;;5115136;28;19908;-54
2022/08/22 08:50:54;;;;;;;;;;;23.60;83.90;;;;;;5115157;28;20014;-57
2022/08/22 08:53:28;;;;;;;;;;;23.60;83.90;;;;;;5114862;28;20329;-54
2022/08/22 08:56:13;;;;;;;;;;;23.60;83.90;;;;;;5114775;28;20007;-54
2022/08/22 08:58:40;;;;;;;;;;;23.70;84.00;;;;;;5114208;28;19908;-55
2022/08/22 09:01:10;;;;;;;;;;;23.70;84.00;;;;;;5115071;28;19919;-53
2022/08/22 09:03:55;;;;;;;;;;;23.70;84.00;;;;;;5114712;28;19920;-53
2022/08/22 09:06:26;;;;;;;;;;;23.60;83.90;;;;;;5114614;28;19908;-53
2022/08/22 09:08:57;;;;;;;;;;;23.60;83.90;;;;;;5114551;28;19953;-55
2022/08/22 09:11:24;;;;;;;;;;;23.60;83.90;;;;;;5096452;28;20350;-56
2022/08/22 09:13:55;;;;;;;;;;;23.70;83.90;;;;;;5114664;28;20003;-56
2022/08/22 09:16:34;;;;;;;;;;;23.70;84.00;;;;;;5114732;28;19958;-55
2022/08/22 09:19:19;;;;;;;;;;;23.60;83.90;;;;;;5114626;28;19961;-56
2022/08/22 09:21:44;;;;;;;;;;;23.70;83.80;;;;;;5114192;28;19915;-55
2022/08/22 09:24:18;;;;;;;;;;;23.70;83.80;;;;;;5114398;28;19908;-56
2022/08/22 09:26:49;;;;;;;;;;;23.70;83.70;;;;;;5114482;28;19907;-53
2022/08/22 09:29:24;;;;;;;;;;;23.70;83.70;;;;;;5114292;28;20010;-54
2022/08/22 09:31:58;;;;;;;;;;;23.70;83.60;;;;;;5114482;28;19908;-53
2022/08/22 09:34:43;;;;;;;;;;;23.70;83.60;;;;;;5114161;28;19907;-54
2022/08/22 09:37:24;;;;;;;;;;;23.60;83.60;;;;;;5114248;28;19936;-55
2022/08/22 09:39:49;;;;;;;;;;;23.70;83.70;;;;;;5114139;28;19962;-55
2022/08/22 09:42:27;;;;;;;;;;;23.70;83.60;;;;;;5096251;28;19954;-54
2022/08/22 09:45:18;;;;;;;;;;;23.60;83.50;;;;;;5114301;28;19953;-55
2022/08/22 09:47:47;;;;;;;;;;;23.70;83.60;;;;;;5114047;28;19916;-52
2022/08/22 09:50:23;;;;;;;;;;;23.70;83.60;;;;;;5114336;28;19912;-54
2022/08/22 09:53:04;;;;;;;;;;;23.70;83.60;;;;;;5114272;28;19908;-57
2022/08/22 09:55:41;;;;;;;;;;;23.60;83.60;;;;;;5114000;28;20396;-55
2022/08/22 09:58:15;;;;;;;;;;;23.70;83.80;;;;;;5095889;28;19962;-54
2022/08/22 10:00:59;;;;;;;;;;;23.60;83.70;;;;;;5114014;28;19976;-50
2022/08/22 10:03:31;;;;;;;;;;;23.70;83.70;;;;;;5113921;28;19920;-54
2022/08/22 10:06:00;;;;;;;;;;;23.70;83.70;;;;;;5113674;28;20342;-54
2022/08/22 10:08:38;;;;;;;;;;;23.70;83.70;;;;;;5114060;28;19953;-53
2022/08/22 10:11:06;;;;;;;;;;;23.70;83.70;;;;;;5116252;28;20006;-53
2022/08/22 10:13:32;;;;;;;;;;;23.70;83.70;;;;;;5117995;28;19908;-57
2022/08/22 10:16:08;;;;;;;;;;;23.70;83.70;;;;;;5118382;28;19930;-53
2022/08/22 10:18:52;;;;;;;;;;;23.70;83.80;;;;;;5118407;28;19962;-54
2022/08/22 10:21:26;;;;;;;;;;;23.70;83.80;;;;;;5099608;28;20363;-56
2022/08/22 10:23:53;;;;;;;;;;;23.70;83.80;;;;;;5117879;28;19908;-54
2022/08/22 10:26:22;;;;;;;;;;;23.70;83.70;;;;;;5117659;28;19907;-55
2022/08/22 10:28:55;;;;;;;;;;;23.70;83.70;;;;;;5099715;28;19966;-54
2022/08/22 10:31:26;;;;;;;;;;;23.70;83.80;;;;;;5117473;28;19908;-56
2022/08/22 10:33:54;;;;;;;;;;;23.60;83.70;;;;;;5117808;28;19908;-53
2022/08/22 10:36:26;;;;;;;;;;;23.60;83.70;;;;;;5117637;28;19915;-53
2022/08/22 10:38:53;;;;;;;;;;;23.70;83.80;;;;;;5117857;28;19934;-55
2022/08/22 10:41:57;;;;;;;;;;;23.70;83.70;;;;;;5117630;28;20231;-55
2022/08/22 10:44:29;;;;;;;;;;;23.70;83.70;;;;;;5014843;28;19947;-53
2022/08/22 10:47:04;;;;;;;;;;;23.70;83.70;;;;;;5014836;28;19919;-54
2022/08/22 10:49:40;;;;;;;;;;;23.70;83.80;;;;;;5073325;28;19907;-51
2022/08/22 10:52:10;;;;;;;;;;;23.70;83.80;;;;;;5117470;28;19908;-53
2022/08/22 10:54:56;;;;;;;;;;;23.70;83.80;;;;;;5117532;28;19991;-57
2022/08/22 10:57:40;;;;;;;;;;;23.70;83.70;;;;;;5117389;28;20346;-55
2022/08/22 11:00:15;;;;;;;;;;;23.70;83.70;;;;;;5117307;28;19915;-57
2022/08/22 11:02:48;;;;;;;;;;;23.70;83.70;;;;;;5117051;28;19927;-51
2022/08/22 11:05:26;;;;;;;;;;;23.70;83.70;;;;;;5098889;28;19908;-55
2022/08/22 11:08:11;;;;;;;;;;;23.70;83.70;;;;;;5116771;28;19908;-52
2022/08/22 11:10:52;;;;;;;;;;;23.70;83.70;;;;;;5116017;28;19912;-57
2022/08/22 11:13:20;;;;;;;;;;;23.70;83.70;;;;;;5116949;28;19919;-55
2022/08/22 11:15:53;;;;;;;;;;;23.70;83.70;;;;;;5116599;28;19973;-53
2022/08/22 11:18:29;;;;;;;;;;;23.70;83.70;;;;;;5098832;28;20014;-56
2022/08/22 11:21:18;;;;;;;;;;;23.70;83.60;;;;;;5116623;28;19922;-57
2022/08/22 11:23:53;;;;;;;;;;;23.70;83.60;;;;;;5103462;28;20374;-57
2022/08/22 11:26:26;;;;;;;;;;;23.70;83.60;;;;;;5116834;28;19907;-51
2022/08/22 11:28:59;;;;;;;;;;;23.70;83.70;;;;;;5098398;28;19909;-54
2022/08/22 11:31:42;;;;;;;;;;;23.70;83.70;;;;;;5116988;28;19966;-53
2022/08/22 11:34:13;;;;;;;;;;;23.70;83.70;;;;;;5116425;28;19950;-53
2022/08/22 11:36:58;;;;;;;;;;;23.70;83.70;;;;;;5116544;28;19908;-54
2022/08/22 11:39:33;;;;;;;;;;;23.70;83.60;;;;;;5097132;28;19920;-55
2022/08/22 11:42:07;;;;;;;;;;;23.70;83.60;;;;;;5116365;28;19908;-56
2022/08/22 11:44:37;;;;;;;;;;;23.70;83.60;;;;;;5116235;28;19912;-56
2022/08/22 11:47:07;;;;;;;;;;;23.70;83.50;;;;;;5115980;28;19915;-51
2022/08/22 11:49:32;;;;;;;;;;;23.70;83.50;;;;;;5116243;28;19976;-54
2022/08/22 11:52:14;;;;;;;;;;;23.70;83.50;;;;;;5116381;28;20447;-51
2022/08/22 11:54:55;;;;;;;;;;;23.70;83.50;;;;;;5116331;28;19914;-54
2022/08/22 11:57:37;;;;;;;;;;;23.70;83.60;;;;;;5116190;28;19908;-53
2022/08/22 12:00:09;;;;;;;;;;;23.70;83.60;;;;;;5097710;28;19965;-55
2022/08/22 12:02:46;;;;;;;;;;;23.70;84.10;;;;;;5116055;28;19920;-55
2022/08/22 12:05:17;;;;;;;;;;;23.70;83.50;;;;;;5097935;28;19923;-52
2022/08/22 12:07:54;;;;;;;;;;;23.70;83.40;;;;;;5116067;28;19908;-56
2022/08/22 12:10:24;;;;;;;;;;;23.70;83.40;;;;;;5116050;28;19908;-55
2022/08/22 12:12:55;;;;;;;;;;;23.70;83.40;;;;;;5115728;28;20377;-51
2022/08/22 12:15:21;;;;;;;;;;;23.70;83.40;;;;;;5115697;28;19923;-56
2022/08/22 12:17:57;;;;;;;;;;;23.70;83.50;;;;;;5115755;28;19911;-56
2022/08/22 12:20:26;;;;;;;;;;;23.70;83.50;;;;;;5115389;28;20358;-57
2022/08/22 12:23:00;;;;;;;;;;;23.70;83.40;;;;;;5115694;28;20269;-57
2022/08/22 12:25:32;;;;;;;;;;;23.70;83.40;;;;;;5115536;28;19960;-52
2022/08/22 12:27:57;;;;;;;;;;;23.70;83.40;;;;;;5115464;28;19937;-55
2022/08/22 12:30:38;;;;;;;;;;;23.70;83.30;;;;;;5115497;28;19908;-53
2022/08/22 12:33:08;;;;;;;;;;;23.70;83.30;;;;;;5114582;28;19951;-56
2022/08/22 12:35:37;;;;;;;;;;;23.70;83.20;;;;;;5115756;28;19945;-54
2022/08/22 12:38:21;;;;;;;;;;;23.70;83.10;;;;;;5115055;28;19908;-54
2022/08/22 12:40:54;;;;;;;;;;;23.70;83.10;;;;;;5114814;28;19916;-54
2022/08/22 12:43:35;;;;;;;;;;;23.70;83.20;;;;;;5114951;28;20277;-55
2022/08/22 12:46:09;;;;;;;;;;;23.70;83.10;;;;;;5115099;28;19945;-56
2022/08/22 12:48:51;;;;;;;;;;;23.70;83.10;;;;;;5096827;28;19912;-51
2022/08/22 12:51:31;;;;;;;;;;;23.70;83.00;;;;;;5115112;28;19919;-53
2022/08/22 12:54:20;;;;;;;;;;;23.70;83.10;;;;;;5114710;28;20304;-53
2022/08/22 12:57:00;;;;;;;;;;;23.70;83.10;;;;;;5101366;28;20265;-55
2022/08/22 12:59:31;;;;;;;;;;;23.70;83.00;;;;;;5115034;28;19963;-54
2022/08/22 13:02:01;;;;;;;;;;;23.70;82.90;;;;;;5115231;28;20031;-54
2022/08/22 13:04:32;;;;;;;;;;;23.70;83.10;;;;;;5114436;28;20375;-56
2022/08/22 13:07:01;;;;;;;;;;;23.70;83.10;;;;;;5114758;28;19908;-56
2022/08/22 13:09:29;;;;;;;;;;;23.70;83.20;;;;;;5114616;28;19908;-52
2022/08/22 13:11:57;;;;;;;;;;;23.70;83.20;;;;;;5114228;28;19958;-56
2022/08/22 13:14:24;;;;;;;;;;;23.70;83.00;;;;;;5114265;28;19907;-55
2022/08/22 13:16:53;;;;;;;;;;;23.70;83.50;;;;;;5114332;28;20002;-55
2022/08/22 13:19:21;;;;;;;;;;;23.70;83.00;;;;;;5114082;28;20002;-57
2022/08/22 13:21:50;;;;;;;;;;;23.70;83.00;;;;;;5096060;28;19998;-57
2022/08/22 13:24:18;;;;;;;;;;;23.70;83.00;;;;;;5114195;28;20354;-54
2022/08/22 13:26:49;;;;;;;;;;;23.70;83.00;;;;;;5114321;28;20260;-54
2022/08/22 13:29:20;;;;;;;;;;;23.70;83.00;;;;;;5114471;28;19912;-54
2022/08/22 13:31:49;;;;;;;;;;;23.70;83.10;;;;;;5114194;28;19969;-54
2022/08/22 13:34:18;;;;;;;;;;;23.70;83.00;;;;;;5114375;28;19908;-54
2022/08/22 13:36:46;;;;;;;;;;;23.70;82.90;;;;;;5114188;28;20283;-56
2022/08/22 13:39:12;;;;;;;;;;;23.70;82.90;;;;;;5114224;28;19953;-54
2022/08/22 13:42:03;;;;;;;;;;;23.70;82.90;;;;;;5113907;28;20014;-56
2022/08/22 13:44:44;;;;;;;;;;;23.70;83.00;;;;;;5108942;28;19908;-55
2022/08/22 13:47:13;;;;;;;;;;;23.70;83.10;;;;;;5114008;28;19922;-54
2022/08/22 13:49:41;;;;;;;;;;;23.70;83.00;;;;;;5113983;28;19907;-57
2022/08/22 13:52:19;;;;;;;;;;;23.70;83.10;;;;;;5095882;28;19908;-56
2022/08/22 13:54:53;;;;;;;;;;;23.70;83.10;;;;;;5095781;28;19974;-56
2022/08/22 13:57:19;;;;;;;;;;;23.70;82.90;;;;;;5113951;28;19991;-55
2022/08/22 13:59:48;;;;;;;;;;;23.70;82.90;;;;;;5113824;28;20446;-54
2022/08/22 14:02:24;;;;;;;;;;;23.70;83.50;;;;;;5113749;28;19907;-56
2022/08/22 14:04:51;;;;;;;;;;;23.70;83.10;;;;;;5114090;28;20009;-53
2022/08/22 14:07:23;;;;;;;;;;;23.70;82.90;;;;;;5113734;28;20423;-54
2022/08/22 14:09:49;;;;;;;;;;;23.70;82.90;;;;;;5113866;28;19947;-53
2022/08/22 14:12:17;;;;;;;;;;;23.70;82.80;;;;;;5113877;28;20269;-52
2022/08/22 14:14:45;;;;;;;;;;;23.70;82.70;;;;;;5114289;28;20377;-53
2022/08/22 14:17:15;;;;;;;;;;;23.70;82.80;;;;;;5113757;28;20373;-55
2022/08/22 14:19:42;;;;;;;;;;;23.70;82.80;;;;;;5113475;28;19916;-55
2022/08/22 14:22:14;;;;;;;;;;;23.70;82.90;;;;;;5113585;28;19908;-56
2022/08/22 14:24:46;;;;;;;;;;;23.70;82.90;;;;;;5113788;28;19985;-55
2022/08/22 14:27:13;;;;;;;;;;;23.70;82.80;;;;;;5113829;28;19933;-53
2022/08/22 14:29:43;;;;;;;;;;;23.70;82.90;;;;;;5113573;28;19973;-56
2022/08/22 14:32:29;;;;;;;;;;;23.70;82.90;;;;;;5113834;28;19908;-54
2022/08/22 14:35:01;;;;;;;;;;;23.70;82.70;;;;;;5112621;28;19911;-53
2022/08/22 14:37:29;;;;;;;;;;;23.70;82.80;;;;;;5113528;28;19908;-55
2022/08/22 14:39:56;;;;;;;;;;;23.70;82.70;;;;;;5095409;28;20251;-55
2022/08/22 14:42:24;;;;;;;;;;;23.70;82.70;;;;;;5113900;28;19912;-56
2022/08/22 14:45:02;;;;;;;;;;;23.70;82.70;;;;;;5113791;28;19964;-54
2022/08/22 14:47:28;;;;;;;;;;;23.70;82.60;;;;;;5113717;28;19918;-56
2022/08/22 14:49:55;;;;;;;;;;;23.70;82.60;;;;;;5113278;28;19990;-54
2022/08/22 14:52:26;;;;;;;;;;;23.70;82.60;;;;;;5113157;28;19914;-52
2022/08/22 14:55:06;;;;;;;;;;;23.70;82.60;;;;;;5112878;28;19960;-57